createdAt,value
2022-08-17T00:00:57.104Z,0.00
2022-08-17T00:01:57.154Z,0.00
2022-08-17T00:02:57.082Z,0.00
2022-08-17T00:03:57.122Z,0.00
2022-08-17T00:04:57.055Z,0.00
2022-08-17T00:05:57.032Z,0.00
2022-08-17T00:06:57.060Z,0.00
2022-08-17T00:07:57.042Z,0.00
2022-08-17T00:08:57.002Z,0.00
2022-08-17T00:09:57.003Z,0.00
2022-08-17T00:10:56.982Z,0.00
2022-08-17T00:12:40.629Z,0.00
2022-08-17T00:12:57.941Z,0.00
2022-08-17T00:13:56.934Z,0.00
2022-08-17T00:14:56.912Z,0.00
2022-08-17T00:15:56.920Z,0.00
2022-08-17T00:16:57.725Z,0.00
2022-08-17T00:17:56.893Z,0.00
2022-08-17T00:19:07.041Z,0.00
2022-08-17T00:19:57.852Z,0.00
2022-08-17T00:20:56.851Z,0.00
2022-08-17T00:22:31.814Z,0.00
2022-08-17T00:22:58.132Z,0.00
2022-08-17T00:23:56.803Z,0.00
2022-08-17T00:24:56.796Z,0.00
2022-08-17T00:25:56.805Z,0.00
2022-08-17T00:26:56.802Z,0.00
2022-08-17T00:27:56.983Z,0.00
2022-08-17T00:28:56.920Z,0.00
2022-08-17T00:29:56.823Z,0.00
2022-08-17T00:30:56.773Z,0.00
2022-08-17T00:31:57.010Z,0.00
2022-08-17T00:33:15.640Z,0.00
2022-08-17T00:33:59.402Z,0.00
2022-08-17T00:34:56.651Z,0.00
2022-08-17T00:35:56.812Z,0.00
2022-08-17T00:36:56.880Z,0.00
2022-08-17T00:37:56.653Z,0.00
2022-08-17T00:38:56.722Z,0.00
2022-08-17T00:39:56.750Z,0.00
2022-08-17T00:40:59.183Z,0.00
2022-08-17T00:41:56.611Z,0.00
2022-08-17T00:42:56.564Z,0.00
2022-08-17T00:43:56.572Z,0.00
2022-08-17T00:44:56.523Z,0.00
2022-08-17T00:45:56.542Z,0.00
2022-08-17T00:46:56.554Z,0.00
2022-08-17T00:47:56.490Z,0.00
2022-08-17T00:48:56.463Z,0.00
2022-08-17T00:49:56.474Z,0.00
2022-08-17T00:50:56.434Z,0.00
2022-08-17T00:51:56.481Z,0.00
2022-08-17T00:52:56.441Z,0.00
2022-08-17T00:53:56.430Z,0.00
2022-08-17T00:54:56.451Z,0.00
2022-08-17T00:55:56.380Z,0.00
2022-08-17T00:56:56.398Z,0.00
2022-08-17T00:57:56.354Z,0.00
2022-08-17T00:58:56.371Z,0.00
2022-08-17T01:00:02.250Z,0.00
2022-08-17T01:00:57.373Z,0.00
2022-08-17T01:01:56.483Z,0.00
2022-08-17T01:02:56.400Z,0.00
2022-08-17T01:03:59.661Z,0.00
2022-08-17T01:04:56.245Z,0.00
2022-08-17T01:05:56.267Z,0.00
2022-08-17T01:06:56.256Z,0.00
2022-08-17T01:07:56.214Z,0.00
2022-08-17T01:08:57.539Z,0.00
2022-08-17T01:09:56.184Z,0.00
2022-08-17T01:10:59.864Z,0.00
2022-08-17T01:11:57.215Z,0.00
2022-08-17T01:12:56.149Z,0.00
2022-08-17T01:13:56.216Z,0.00
2022-08-17T01:14:56.115Z,0.00
2022-08-17T01:15:56.115Z,0.00
2022-08-17T01:16:56.134Z,0.00
2022-08-17T01:17:56.083Z,0.00
2022-08-17T01:18:56.075Z,0.00
2022-08-17T01:19:56.056Z,0.00
2022-08-17T01:20:56.044Z,0.00
2022-08-17T01:21:56.058Z,0.00
2022-08-17T01:22:56.015Z,0.00
2022-08-17T01:23:55.995Z,0.00
2022-08-17T01:24:55.992Z,0.00
2022-08-17T01:25:55.974Z,0.00
2022-08-17T01:26:56.709Z,0.00
2022-08-17T01:27:55.945Z,0.00
2022-08-17T01:28:56.061Z,0.00
2022-08-17T01:29:55.948Z,0.00
2022-08-17T01:30:57.879Z,0.00
2022-08-17T01:31:55.923Z,0.00
2022-08-17T01:32:55.884Z,0.00
2022-08-17T01:33:55.965Z,0.00
2022-08-17T01:34:55.856Z,0.00
2022-08-17T01:35:55.857Z,0.00
2022-08-17T01:36:55.874Z,0.00
2022-08-17T01:37:55.814Z,0.00
2022-08-17T01:38:55.803Z,0.00
2022-08-17T01:39:55.869Z,0.00
2022-08-17T01:40:57.479Z,0.00
2022-08-17T01:41:55.784Z,0.00
2022-08-17T01:42:55.754Z,0.00
2022-08-17T01:43:55.726Z,0.00
2022-08-17T01:44:55.735Z,0.00
2022-08-17T01:46:02.821Z,0.00
2022-08-17T01:46:56.723Z,0.00
2022-08-17T01:47:55.675Z,0.00
2022-08-17T01:48:55.687Z,0.00
2022-08-17T01:49:55.647Z,0.00
2022-08-17T01:50:55.644Z,0.00
2022-08-17T01:51:55.686Z,0.00
2022-08-17T01:52:55.617Z,0.00
2022-08-17T01:53:55.596Z,0.00
2022-08-17T01:54:55.596Z,0.00
2022-08-17T01:55:55.579Z,0.00
2022-08-17T01:56:55.594Z,0.00
2022-08-17T01:57:55.546Z,0.00
2022-08-17T01:58:55.542Z,0.00
2022-08-17T01:59:55.517Z,0.00
2022-08-17T02:01:00.445Z,0.00
2022-08-17T02:01:56.550Z,0.00
2022-08-17T02:02:55.503Z,0.00
2022-08-17T02:04:00.413Z,0.00
2022-08-17T02:04:56.526Z,0.00
2022-08-17T02:05:55.442Z,0.00
2022-08-17T02:06:55.457Z,0.00
2022-08-17T02:07:59.640Z,0.00
2022-08-17T02:09:01.682Z,0.00
2022-08-17T02:09:56.387Z,0.00
2022-08-17T02:10:55.376Z,0.00
2022-08-17T02:11:56.378Z,0.00
2022-08-17T02:12:55.348Z,0.00
2022-08-17T02:14:02.489Z,0.00
2022-08-17T02:14:56.316Z,0.00
2022-08-17T02:15:55.312Z,0.00
2022-08-17T02:16:55.329Z,0.00
2022-08-17T02:17:55.286Z,0.00
2022-08-17T02:18:55.268Z,0.00
2022-08-17T02:19:55.250Z,0.00
2022-08-17T02:20:55.236Z,0.00
2022-08-17T02:21:55.268Z,0.00
2022-08-17T02:22:55.247Z,0.00
2022-08-17T02:23:55.196Z,0.00
2022-08-17T02:24:58.812Z,0.00
2022-08-17T02:25:56.176Z,0.00
2022-08-17T02:26:55.194Z,0.00
2022-08-17T02:27:55.167Z,0.00
2022-08-17T02:28:55.137Z,0.00
2022-08-17T02:29:55.123Z,0.00
2022-08-17T02:31:00.912Z,0.00
2022-08-17T02:31:56.120Z,0.00
2022-08-17T02:32:55.086Z,0.00
2022-08-17T02:34:00.600Z,0.00
2022-08-17T02:34:56.111Z,0.00
2022-08-17T02:35:55.048Z,0.00
2022-08-17T02:36:55.067Z,0.00
2022-08-17T02:37:55.686Z,0.00
2022-08-17T02:38:55.017Z,0.00
2022-08-17T02:39:55.051Z,0.00
2022-08-17T02:40:54.978Z,0.00
2022-08-17T02:41:54.998Z,0.00
2022-08-17T02:42:54.951Z,0.00
2022-08-17T02:43:54.952Z,0.00
2022-08-17T02:44:54.939Z,0.00
2022-08-17T02:45:55.340Z,0.00
2022-08-17T02:46:54.938Z,0.00
2022-08-17T02:47:54.888Z,0.00
2022-08-17T02:48:54.876Z,0.00
2022-08-17T02:49:55.756Z,0.00
2022-08-17T02:50:54.847Z,0.00
2022-08-17T02:51:54.857Z,0.00
2022-08-17T02:53:02.362Z,0.00
2022-08-17T02:54:35.844Z,0.00
2022-08-17T02:54:55.796Z,0.00
2022-08-17T02:55:54.777Z,0.00
2022-08-17T02:56:54.810Z,0.00
2022-08-17T02:57:54.750Z,0.00
2022-08-17T02:58:54.745Z,0.00
2022-08-17T02:59:54.718Z,0.00
2022-08-17T03:00:54.707Z,0.00
2022-08-17T03:01:54.788Z,0.00
2022-08-17T03:02:54.690Z,0.00
2022-08-17T03:03:54.788Z,0.00
2022-08-17T03:04:54.661Z,0.00
2022-08-17T03:05:54.681Z,0.00
2022-08-17T03:06:54.658Z,0.00
2022-08-17T03:07:54.618Z,0.00
2022-08-17T03:08:54.625Z,0.00
2022-08-17T03:09:54.589Z,0.00
2022-08-17T03:10:54.580Z,0.00
2022-08-17T03:11:55.820Z,0.00
2022-08-17T03:12:54.557Z,0.00
2022-08-17T03:13:54.538Z,0.00
2022-08-17T03:14:54.528Z,0.00
2022-08-17T03:15:54.510Z,0.00
2022-08-17T03:16:54.610Z,0.00
2022-08-17T03:17:54.505Z,0.00
2022-08-17T03:18:54.472Z,0.00
2022-08-17T03:19:54.459Z,0.00
2022-08-17T03:20:54.484Z,0.00
2022-08-17T03:21:55.376Z,0.00
2022-08-17T03:22:54.953Z,0.00
2022-08-17T03:23:55.398Z,0.00
2022-08-17T03:24:54.396Z,0.00
2022-08-17T03:25:54.376Z,0.00
2022-08-17T03:26:54.411Z,0.00
2022-08-17T03:27:54.354Z,0.00
2022-08-17T03:28:54.350Z,0.00
2022-08-17T03:29:54.347Z,0.00
2022-08-17T03:30:54.345Z,0.00
2022-08-17T03:31:54.338Z,0.00
2022-08-17T03:32:54.251Z,1.00
2022-08-17T03:33:54.280Z,0.00
2022-08-17T03:34:54.260Z,0.00
2022-08-17T03:35:54.241Z,0.00
2022-08-17T03:36:54.189Z,1.00
2022-08-17T03:38:01.025Z,1.00
2022-08-17T03:38:55.219Z,0.00
2022-08-17T03:39:54.233Z,0.00
2022-08-17T03:40:59.092Z,2.00
2022-08-17T03:41:55.099Z,1.00
2022-08-17T03:42:54.139Z,1.00
2022-08-17T03:43:54.151Z,0.00
2022-08-17T03:44:54.130Z,0.00
2022-08-17T03:45:54.069Z,7.00
2022-08-17T03:46:54.046Z,7.00
2022-08-17T03:47:54.059Z,4.00
2022-08-17T03:48:54.020Z,2.00
2022-08-17T03:49:54.001Z,1.00
2022-08-17T03:50:53.997Z,2.00
2022-08-17T03:51:54.032Z,6.00
2022-08-17T03:52:54.061Z,3.00
2022-08-17T03:53:53.951Z,3.00
2022-08-17T03:54:53.948Z,5.00
2022-08-17T03:55:53.940Z,6.00
2022-08-17T03:56:53.920Z,8.00
2022-08-17T03:57:53.934Z,11.00
2022-08-17T03:58:53.970Z,13.00
2022-08-17T03:59:53.900Z,15.00
2022-08-17T04:00:53.859Z,17.00
2022-08-17T04:01:53.927Z,19.00
2022-08-17T04:02:53.861Z,21.00
2022-08-17T04:03:53.820Z,24.00
2022-08-17T04:04:53.884Z,27.00
2022-08-17T04:05:53.902Z,30.00
2022-08-17T04:06:53.888Z,31.00
2022-08-17T04:07:53.790Z,32.00
2022-08-17T04:08:53.761Z,33.00
2022-08-17T04:09:53.742Z,33.00
2022-08-17T04:10:53.732Z,37.00
2022-08-17T04:11:53.718Z,40.00
2022-08-17T04:12:53.731Z,43.00
2022-08-17T04:13:53.681Z,48.00
2022-08-17T04:14:55.045Z,55.00
2022-08-17T04:15:53.674Z,65.00
2022-08-17T04:16:53.650Z,71.00
2022-08-17T04:17:53.701Z,69.00
2022-08-17T04:18:53.628Z,73.00
2022-08-17T04:19:53.620Z,74.00
2022-08-17T04:20:53.624Z,79.00
2022-08-17T04:21:53.583Z,97.00
2022-08-17T04:22:53.611Z,115.00
2022-08-17T04:23:53.551Z,120.00
2022-08-17T04:24:53.540Z,126.00
2022-08-17T04:25:53.540Z,136.00
2022-08-17T04:26:54.694Z,146.00
2022-08-17T04:27:53.540Z,149.00
2022-08-17T04:28:53.490Z,164.00
2022-08-17T04:29:55.391Z,184.00
2022-08-17T04:30:53.463Z,202.00
2022-08-17T04:31:53.478Z,215.00
2022-08-17T04:33:05.269Z,225.00
2022-08-17T04:33:54.421Z,236.00
2022-08-17T04:34:53.428Z,242.00
2022-08-17T04:35:53.481Z,253.00
2022-08-17T04:36:53.405Z,265.00
2022-08-17T04:37:53.399Z,271.00
2022-08-17T04:38:53.357Z,269.00
2022-08-17T04:39:53.414Z,269.00
2022-08-17T04:40:53.334Z,270.00
2022-08-17T04:41:53.340Z,267.00
2022-08-17T04:42:53.662Z,274.00
2022-08-17T04:43:54.311Z,281.00
2022-08-17T04:44:53.282Z,298.00
2022-08-17T04:45:55.826Z,308.00
2022-08-17T04:46:53.254Z,320.00
2022-08-17T04:47:53.271Z,316.00
2022-08-17T04:48:53.242Z,324.00
2022-08-17T04:49:53.210Z,329.00
2022-08-17T04:50:53.202Z,348.00
2022-08-17T04:51:54.510Z,353.00
2022-08-17T04:52:53.201Z,358.00
2022-08-17T04:53:54.022Z,362.00
2022-08-17T04:54:53.164Z,377.00
2022-08-17T04:55:53.192Z,387.00
2022-08-17T04:56:53.123Z,397.00
2022-08-17T04:57:53.131Z,412.00
2022-08-17T04:58:53.093Z,418.00
2022-08-17T04:59:53.081Z,431.00
2022-08-17T05:00:53.198Z,442.00
2022-08-17T05:01:53.363Z,449.00
2022-08-17T05:02:53.327Z,459.00
2022-08-17T05:03:53.023Z,468.00
2022-08-17T05:04:53.012Z,478.00
2022-08-17T05:05:53.001Z,494.00
2022-08-17T05:06:52.992Z,507.00
2022-08-17T05:07:53.072Z,519.00
2022-08-17T05:08:52.961Z,532.00
2022-08-17T05:09:52.943Z,540.00
2022-08-17T05:10:52.933Z,546.00
2022-08-17T05:11:52.945Z,550.00
2022-08-17T05:12:52.924Z,557.00
2022-08-17T05:13:52.911Z,563.00
2022-08-17T05:14:52.882Z,577.00
2022-08-17T05:15:52.917Z,580.00
2022-08-17T05:16:57.065Z,592.00
2022-08-17T05:17:52.832Z,601.00
2022-08-17T05:18:52.854Z,604.00
2022-08-17T05:19:52.812Z,619.00
2022-08-17T05:20:52.803Z,621.00
2022-08-17T05:21:52.787Z,623.00
2022-08-17T05:22:52.889Z,628.00
2022-08-17T05:23:54.799Z,628.00
2022-08-17T05:24:55.515Z,643.00
2022-08-17T05:25:52.734Z,654.00
2022-08-17T05:26:52.733Z,664.00
2022-08-17T05:27:52.703Z,681.00
2022-08-17T05:28:52.733Z,703.00
2022-08-17T05:29:52.673Z,704.00
2022-08-17T05:30:52.663Z,711.00
2022-08-17T05:31:52.673Z,699.00
2022-08-17T05:32:52.777Z,700.00
2022-08-17T05:33:52.653Z,703.00
2022-08-17T05:34:52.625Z,709.00
2022-08-17T05:35:52.594Z,721.00
2022-08-17T05:36:52.593Z,731.00
2022-08-17T05:37:52.564Z,750.00
2022-08-17T05:38:52.594Z,774.00
2022-08-17T05:39:52.560Z,783.00
2022-08-17T05:40:52.830Z,791.00
2022-08-17T05:41:52.524Z,802.00
2022-08-17T05:42:52.807Z,825.00
2022-08-17T05:43:56.227Z,838.00
2022-08-17T05:44:52.474Z,848.00
2022-08-17T05:45:55.319Z,862.00
2022-08-17T05:46:52.445Z,896.00
2022-08-17T05:47:52.445Z,927.00
2022-08-17T05:48:52.456Z,960.00
2022-08-17T05:49:53.806Z,980.00
2022-08-17T05:50:52.405Z,987.00
2022-08-17T05:51:52.422Z,986.00
2022-08-17T05:52:52.447Z,992.00
2022-08-17T05:53:52.385Z,992.00
2022-08-17T05:54:52.335Z,996.00
2022-08-17T05:55:52.501Z,996.00
2022-08-17T05:56:52.315Z,1003.00
2022-08-17T05:57:54.105Z,1025.00
2022-08-17T05:58:52.315Z,1032.00
2022-08-17T05:59:52.275Z,1042.00
2022-08-17T06:00:52.379Z,1069.00
2022-08-17T06:01:52.245Z,1090.00
2022-08-17T06:02:52.508Z,1124.00
2022-08-17T06:03:52.256Z,1146.00
2022-08-17T06:04:52.204Z,1149.00
2022-08-17T06:05:52.206Z,1177.00
2022-08-17T06:06:52.256Z,1201.00
2022-08-17T06:07:52.166Z,1205.00
2022-08-17T06:08:52.187Z,1230.00
2022-08-17T06:09:52.147Z,1250.00
2022-08-17T06:10:52.138Z,1242.00
2022-08-17T06:11:53.536Z,1296.00
2022-08-17T06:12:52.235Z,1292.00
2022-08-17T06:13:52.087Z,1301.00
2022-08-17T06:14:52.146Z,1308.00
2022-08-17T06:15:52.066Z,1319.00
2022-08-17T06:16:52.091Z,1360.00
2022-08-17T06:17:52.039Z,1375.00
2022-08-17T06:18:52.052Z,1403.00
2022-08-17T06:19:52.007Z,1424.00
2022-08-17T06:20:51.996Z,1435.00
2022-08-17T06:21:51.989Z,1437.00
2022-08-17T06:22:52.207Z,1462.00
2022-08-17T06:23:52.319Z,1495.00
2022-08-17T06:24:51.947Z,1510.00
2022-08-17T06:25:51.928Z,1514.00
2022-08-17T06:26:51.920Z,1529.00
2022-08-17T06:27:53.475Z,1546.00
2022-08-17T06:28:51.976Z,1563.00
2022-08-17T06:29:51.877Z,1597.00
2022-08-17T06:31:00.191Z,1624.00
2022-08-17T06:31:52.856Z,1708.00
2022-08-17T06:32:52.107Z,1728.00
2022-08-17T06:33:51.858Z,1724.00
2022-08-17T06:34:51.918Z,1764.00
2022-08-17T06:35:51.799Z,1764.00
2022-08-17T06:36:51.790Z,1786.00
2022-08-17T06:37:51.768Z,1808.00
2022-08-17T06:38:51.908Z,1861.00
2022-08-17T06:39:51.799Z,1890.00
2022-08-17T06:40:51.761Z,1873.00
2022-08-17T06:41:51.778Z,1862.00
2022-08-17T06:43:04.011Z,1849.00
2022-08-17T06:43:52.720Z,1843.00
2022-08-17T06:44:51.768Z,1827.00
2022-08-17T06:45:51.700Z,1864.00
2022-08-17T06:46:51.807Z,1887.00
2022-08-17T06:47:51.641Z,1867.00
2022-08-17T06:48:51.650Z,1863.00
2022-08-17T06:49:55.287Z,1854.00
2022-08-17T06:50:51.601Z,1831.00
2022-08-17T06:51:51.699Z,1792.00
2022-08-17T06:52:51.571Z,1782.00
2022-08-17T06:53:51.593Z,1695.00
2022-08-17T06:54:51.540Z,1664.00
2022-08-17T06:55:52.301Z,1618.00
2022-08-17T06:56:54.620Z,1576.00
2022-08-17T06:57:52.322Z,1553.00
2022-08-17T06:58:51.521Z,1560.00
2022-08-17T06:59:55.515Z,1547.00
2022-08-17T07:00:58.102Z,1426.00
2022-08-17T07:01:52.461Z,1423.00
2022-08-17T07:02:52.631Z,1326.00
2022-08-17T07:03:51.769Z,1360.00
2022-08-17T07:04:51.417Z,1500.00
2022-08-17T07:05:51.417Z,1636.00
2022-08-17T07:06:51.394Z,1481.00
2022-08-17T07:07:51.391Z,1518.00
2022-08-17T07:08:51.438Z,1496.00
2022-08-17T07:09:51.352Z,1430.00
2022-08-17T07:10:51.351Z,1446.00
2022-08-17T07:11:51.322Z,1123.00
2022-08-17T07:12:51.496Z,1091.00
2022-08-17T07:13:51.755Z,1844.00
2022-08-17T07:14:51.304Z,2186.00
2022-08-17T07:15:55.177Z,1321.00
2022-08-17T07:16:52.255Z,1228.00
2022-08-17T07:17:51.313Z,1616.00
2022-08-17T07:18:51.264Z,2044.00
2022-08-17T07:19:51.220Z,1915.00
2022-08-17T07:20:51.224Z,2006.00
2022-08-17T07:21:51.194Z,1982.00
2022-08-17T07:22:59.800Z,1855.00
2022-08-17T07:23:52.201Z,1869.00
2022-08-17T07:24:51.153Z,1665.00
2022-08-17T07:25:51.151Z,1855.00
2022-08-17T07:26:51.134Z,1367.00
2022-08-17T07:27:51.334Z,1263.00
2022-08-17T07:28:51.125Z,1531.00
2022-08-17T07:29:51.093Z,1599.00
2022-08-17T07:30:51.075Z,1783.00
2022-08-17T07:31:51.066Z,1687.00
2022-08-17T07:32:51.052Z,1667.00
2022-08-17T07:33:51.075Z,1758.00
2022-08-17T07:34:51.028Z,1201.00
2022-08-17T07:35:51.023Z,1797.00
2022-08-17T07:36:50.995Z,1424.00
2022-08-17T07:37:51.196Z,1910.00
2022-08-17T07:38:51.005Z,1680.00
2022-08-17T07:40:14.768Z,1705.00
2022-08-17T07:40:52.237Z,1464.00
2022-08-17T07:41:57.896Z,2503.00
2022-08-17T07:42:51.927Z,1880.00
2022-08-17T07:43:50.936Z,1968.00
2022-08-17T07:44:50.947Z,1954.00
2022-08-17T07:45:50.907Z,1798.00
2022-08-17T07:46:50.873Z,1758.00
2022-08-17T07:47:51.016Z,1847.00
2022-08-17T07:48:50.875Z,2047.00
2022-08-17T07:49:50.828Z,1966.00
2022-08-17T07:50:50.891Z,1869.00
2022-08-17T07:51:50.806Z,1934.00
2022-08-17T07:52:52.534Z,2164.00
2022-08-17T07:53:50.809Z,2095.00
2022-08-17T07:54:50.765Z,2212.00
2022-08-17T07:55:50.749Z,2141.00
2022-08-17T07:56:50.738Z,2061.00
2022-08-17T07:57:50.853Z,2267.00
2022-08-17T07:58:50.739Z,2529.00
2022-08-17T07:59:50.702Z,2250.00
2022-08-17T08:00:50.683Z,3138.00
2022-08-17T08:01:53.894Z,2352.00
2022-08-17T08:02:51.665Z,1629.00
2022-08-17T08:03:52.556Z,3361.00
2022-08-17T08:05:00.603Z,3201.00
2022-08-17T08:05:51.620Z,3787.00
2022-08-17T08:06:50.612Z,3326.00
2022-08-17T08:07:50.759Z,2490.00
2022-08-17T08:08:50.609Z,3333.00
2022-08-17T08:09:50.583Z,2419.00
2022-08-17T08:10:50.552Z,2434.00
2022-08-17T08:11:50.542Z,2302.00
2022-08-17T08:12:53.701Z,2843.00
2022-08-17T08:13:50.559Z,2934.00
2022-08-17T08:14:50.513Z,3262.00
2022-08-17T08:15:54.053Z,2651.00
2022-08-17T08:16:50.473Z,2232.00
2022-08-17T08:17:50.603Z,2194.00
2022-08-17T08:18:55.781Z,1828.00
2022-08-17T08:19:51.438Z,2233.00
2022-08-17T08:20:51.861Z,2046.00
2022-08-17T08:21:50.411Z,2812.00
2022-08-17T08:22:50.923Z,2726.00
2022-08-17T08:23:50.416Z,2163.00
2022-08-17T08:24:50.369Z,2185.00
2022-08-17T08:25:53.510Z,2880.00
2022-08-17T08:26:50.381Z,2283.00
2022-08-17T08:27:50.573Z,4337.00
2022-08-17T08:28:50.405Z,3473.00
2022-08-17T08:29:50.305Z,1223.00
2022-08-17T08:30:50.285Z,4449.00
2022-08-17T08:31:50.277Z,2919.00
2022-08-17T08:32:50.570Z,1661.00
2022-08-17T08:33:50.278Z,1685.00
2022-08-17T08:35:01.145Z,1243.00
2022-08-17T08:35:52.004Z,1479.00
2022-08-17T08:36:58.144Z,2277.00
2022-08-17T08:37:51.313Z,1538.00
2022-08-17T08:38:50.216Z,1681.00
2022-08-17T08:39:50.256Z,1964.00
2022-08-17T08:40:50.226Z,1696.00
2022-08-17T08:41:50.301Z,3147.00
2022-08-17T08:42:50.234Z,1561.00
2022-08-17T08:43:53.004Z,2952.00
2022-08-17T08:45:00.884Z,2710.00
2022-08-17T08:45:51.093Z,3184.00
2022-08-17T08:46:50.069Z,1916.00
2022-08-17T08:47:50.219Z,1398.00
2022-08-17T08:48:56.704Z,4463.00
2022-08-17T08:50:06.426Z,2451.00
2022-08-17T08:50:51.050Z,2162.00
2022-08-17T08:51:51.692Z,1377.00
2022-08-17T08:52:50.015Z,2613.00
2022-08-17T08:53:50.022Z,2541.00
2022-08-17T08:54:49.970Z,2432.00
2022-08-17T08:55:49.971Z,2160.00
2022-08-17T08:57:21.882Z,2194.00
2022-08-17T08:57:51.108Z,2248.00
2022-08-17T08:58:49.936Z,1549.00
2022-08-17T08:59:51.226Z,2817.00
2022-08-17T09:00:50.885Z,2438.00
2022-08-17T09:01:49.910Z,1898.00
2022-08-17T09:02:49.863Z,1784.00
2022-08-17T09:03:53.146Z,2565.00
2022-08-17T09:05:13.023Z,3989.00
2022-08-17T09:05:50.825Z,2436.00
2022-08-17T09:06:49.804Z,2831.00
2022-08-17T09:07:49.874Z,2481.00
2022-08-17T09:08:49.818Z,2652.00
2022-08-17T09:09:49.775Z,2913.00
2022-08-17T09:10:49.762Z,2448.00
2022-08-17T09:12:02.521Z,2664.00
2022-08-17T09:12:50.728Z,2053.00
2022-08-17T09:13:54.699Z,2420.00
2022-08-17T09:14:50.722Z,1776.00
2022-08-17T09:15:49.699Z,2015.00
2022-08-17T09:16:49.677Z,1197.00
2022-08-17T09:17:55.738Z,1959.00
2022-08-17T09:19:00.698Z,1477.00
2022-08-17T09:19:50.639Z,1750.00
2022-08-17T09:20:50.333Z,1844.00
2022-08-17T09:21:49.619Z,3750.00
2022-08-17T09:22:49.599Z,1666.00
2022-08-17T09:23:49.628Z,2838.00
2022-08-17T09:24:49.580Z,2079.00
2022-08-17T09:25:49.573Z,3836.00
2022-08-17T09:26:49.560Z,1721.00
2022-08-17T09:27:49.780Z,2133.00
2022-08-17T09:28:49.564Z,2275.00
2022-08-17T09:29:49.519Z,2494.00
2022-08-17T09:30:49.493Z,2208.00
2022-08-17T09:31:49.711Z,2454.00
2022-08-17T09:32:49.485Z,2956.00
2022-08-17T09:33:49.492Z,4846.00
2022-08-17T09:34:49.441Z,3309.00
2022-08-17T09:35:49.463Z,2000.00
2022-08-17T09:36:49.422Z,1695.00
2022-08-17T09:37:49.672Z,1973.00
2022-08-17T09:38:49.423Z,2235.00
2022-08-17T09:39:49.553Z,2338.00
2022-08-17T09:40:49.504Z,2400.00
2022-08-17T09:41:49.585Z,5242.00
2022-08-17T09:42:49.353Z,4320.00
2022-08-17T09:43:49.472Z,2550.00
2022-08-17T09:44:49.325Z,3196.00
2022-08-17T09:45:49.311Z,3428.00
2022-08-17T09:46:49.295Z,2927.00
2022-08-17T09:47:49.331Z,2961.00
2022-08-17T09:48:49.311Z,2050.00
2022-08-17T09:49:49.272Z,2254.00
2022-08-17T09:51:05.013Z,3701.00
2022-08-17T09:51:50.276Z,3604.00
2022-08-17T09:52:49.221Z,3283.00
2022-08-17T09:53:49.821Z,3519.00
2022-08-17T09:54:49.196Z,2721.00
2022-08-17T09:55:49.188Z,3674.00
2022-08-17T09:57:00.911Z,3213.00
2022-08-17T09:57:52.032Z,2989.00
2022-08-17T09:58:49.169Z,3458.00
2022-08-17T09:59:49.128Z,3081.00
2022-08-17T10:00:49.202Z,2942.00
2022-08-17T10:01:49.114Z,3141.00
2022-08-17T10:02:49.091Z,2930.00
2022-08-17T10:03:49.109Z,2923.00
2022-08-17T10:04:49.060Z,2941.00
2022-08-17T10:05:49.052Z,2900.00
2022-08-17T10:06:49.040Z,2944.00
2022-08-17T10:07:49.090Z,2938.00
2022-08-17T10:08:49.053Z,2942.00
2022-08-17T10:09:49.002Z,2977.00
2022-08-17T10:10:52.346Z,2990.00
2022-08-17T10:11:50.296Z,2970.00
2022-08-17T10:12:48.963Z,2949.00
2022-08-17T10:13:52.800Z,2911.00
2022-08-17T10:14:53.478Z,2847.00
2022-08-17T10:15:49.923Z,2791.00
2022-08-17T10:16:48.913Z,2730.00
2022-08-17T10:17:49.190Z,2674.00
2022-08-17T10:18:48.940Z,2599.00
2022-08-17T10:19:48.884Z,2510.00
2022-08-17T10:20:48.863Z,2462.00
2022-08-17T10:21:48.846Z,2466.00
2022-08-17T10:22:53.033Z,2484.00
2022-08-17T10:23:48.866Z,2483.00
2022-08-17T10:25:23.227Z,2490.00
2022-08-17T10:25:55.207Z,2538.00
2022-08-17T10:26:56.208Z,2552.00
2022-08-17T10:27:49.915Z,2556.00
2022-08-17T10:28:48.797Z,2566.00
2022-08-17T10:29:49.720Z,2590.00
2022-08-17T10:30:50.126Z,2639.00
2022-08-17T10:31:48.719Z,2677.00
2022-08-17T10:32:48.708Z,2701.00
2022-08-17T10:33:48.738Z,2736.00
2022-08-17T10:34:48.689Z,2708.00
2022-08-17T10:35:48.666Z,2534.00
2022-08-17T10:36:48.688Z,2763.00
2022-08-17T10:37:48.763Z,2712.00
2022-08-17T10:38:48.683Z,2503.00
2022-08-17T10:39:51.873Z,3025.00
2022-08-17T10:40:48.731Z,2893.00
2022-08-17T10:41:48.692Z,3040.00
2022-08-17T10:42:48.620Z,3095.00
2022-08-17T10:44:37.573Z,3128.00
2022-08-17T10:44:49.551Z,3191.00
2022-08-17T10:45:48.611Z,3260.00
2022-08-17T10:46:49.529Z,3327.00
2022-08-17T10:47:55.645Z,3390.00
2022-08-17T10:48:49.554Z,3438.00
2022-08-17T10:49:48.532Z,3469.00
2022-08-17T10:50:48.544Z,3527.00
2022-08-17T10:51:48.464Z,3529.00
2022-08-17T10:52:48.456Z,3503.00
2022-08-17T10:53:48.521Z,3429.00
2022-08-17T10:54:48.503Z,3338.00
2022-08-17T10:55:48.561Z,3246.00
2022-08-17T10:56:48.495Z,3236.00
2022-08-17T10:57:48.446Z,3259.00
2022-08-17T10:58:48.404Z,3267.00
2022-08-17T10:59:48.355Z,3205.00
2022-08-17T11:00:48.373Z,3089.00
2022-08-17T11:01:48.329Z,3005.00
2022-08-17T11:02:48.317Z,2925.00
2022-08-17T11:03:52.426Z,2865.00
2022-08-17T11:04:48.355Z,2804.00
2022-08-17T11:05:48.286Z,2734.00
2022-08-17T11:06:50.498Z,2676.00
2022-08-17T11:07:49.206Z,2648.00
2022-08-17T11:08:49.051Z,2616.00
2022-08-17T11:09:50.270Z,2559.00
2022-08-17T11:10:52.126Z,2536.00
2022-08-17T11:11:48.478Z,2490.00
2022-08-17T11:12:48.210Z,2399.00
2022-08-17T11:13:48.545Z,2303.00
2022-08-17T11:14:50.899Z,2392.00
2022-08-17T11:15:48.310Z,2204.00
2022-08-17T11:16:48.271Z,2066.00
2022-08-17T11:17:48.123Z,2060.00
2022-08-17T11:18:48.310Z,2422.00
2022-08-17T11:19:48.092Z,3059.00
2022-08-17T11:20:48.090Z,2645.00
2022-08-17T11:21:48.070Z,3245.00
2022-08-17T11:22:48.110Z,3468.00
2022-08-17T11:23:48.062Z,3290.00
2022-08-17T11:24:48.044Z,3031.00
2022-08-17T11:25:48.019Z,3347.00
2022-08-17T11:26:48.012Z,3942.00
2022-08-17T11:27:47.994Z,3526.00
2022-08-17T11:28:48.027Z,5127.00
2022-08-17T11:29:52.539Z,4166.00
2022-08-17T11:30:49.024Z,3945.00
2022-08-17T11:31:47.936Z,3683.00
2022-08-17T11:32:52.006Z,3427.00
2022-08-17T11:33:48.945Z,3161.00
2022-08-17T11:34:47.905Z,2907.00
2022-08-17T11:35:47.965Z,2615.00
2022-08-17T11:36:48.492Z,2308.00
2022-08-17T11:37:48.055Z,2021.00
2022-08-17T11:38:47.885Z,1825.00
2022-08-17T11:39:48.049Z,1735.00
2022-08-17T11:40:47.829Z,1691.00
2022-08-17T11:41:47.810Z,1677.00
2022-08-17T11:42:47.887Z,1727.00
2022-08-17T11:43:47.826Z,1844.00
2022-08-17T11:44:47.793Z,2005.00
2022-08-17T11:45:47.758Z,2208.00
2022-08-17T11:46:51.686Z,2445.00
2022-08-17T11:48:02.491Z,2733.00
2022-08-17T11:48:48.769Z,3041.00
2022-08-17T11:49:47.709Z,3224.00
2022-08-17T11:50:47.702Z,3243.00
2022-08-17T11:51:47.687Z,3117.00
2022-08-17T11:52:47.683Z,2952.00
2022-08-17T11:53:47.689Z,2822.00
2022-08-17T11:54:47.862Z,2671.00
2022-08-17T11:55:48.341Z,2459.00
2022-08-17T11:56:47.777Z,2322.00
2022-08-17T11:57:48.897Z,2293.00
2022-08-17T11:58:48.490Z,2344.00
2022-08-17T11:59:47.584Z,2399.00
2022-08-17T12:00:47.670Z,2471.00
2022-08-17T12:01:51.812Z,2444.00
2022-08-17T12:02:48.623Z,2305.00
2022-08-17T12:03:55.411Z,2138.00
2022-08-17T12:04:48.549Z,1990.00
2022-08-17T12:05:47.512Z,1781.00
2022-08-17T12:06:51.810Z,1591.00
2022-08-17T12:07:47.545Z,1482.00
2022-08-17T12:08:47.514Z,1422.00
2022-08-17T12:09:47.444Z,1370.00
2022-08-17T12:10:47.525Z,1337.00
2022-08-17T12:12:11.123Z,1298.00
2022-08-17T12:12:48.533Z,1247.00
2022-08-17T12:13:47.636Z,1191.00
2022-08-17T12:15:52.492Z,1185.00
2022-08-17T12:16:47.367Z,1241.00
2022-08-17T12:17:47.345Z,1354.00
2022-08-17T12:18:47.361Z,1524.00
2022-08-17T12:19:47.318Z,1704.00
2022-08-17T12:20:47.331Z,1903.00
2022-08-17T12:21:47.297Z,2155.00
2022-08-17T12:22:47.310Z,2368.00
2022-08-17T12:23:47.316Z,2555.00
2022-08-17T12:24:48.199Z,2707.00
2022-08-17T12:25:47.238Z,2743.00
2022-08-17T12:26:47.240Z,2730.00
2022-08-17T12:28:05.286Z,2670.00
2022-08-17T12:28:48.250Z,2470.00
2022-08-17T12:29:47.279Z,2289.00
2022-08-17T12:30:47.180Z,2141.00
2022-08-17T12:31:47.170Z,2052.00
2022-08-17T12:32:47.157Z,1950.00